Flight Track Log - Related Links

Times and Time Zones

All times are in EDT time to prevent confusion due to time zone crossing. See the JBU527 flight status page for this flight to view local times or setup timezone preferences in your user account.

Time Position Orientation Groundspeed Altitude Reporting Facility
EDT Latitude Longitude Course Direction KTS MPH feet Rate Location/Type
Mon 07:19:50 PM 40.6667 -74.1833 180° South 150 173 1,500  Level New York TRACON
Mon 07:20:50 PM 40.6167 -74.2167 207° Southwest 233 268 3,100 2,250 Climbing New York TRACON
Mon 07:21:50 PM 40.5500 -74.2667 210° Southwest 256 295 6,000 1,450 Climbing New York TRACON
Mon 07:22:00 PM 40.3634 -74.1781 161° South  Level FlightAware Approximate
Mon 07:22:50 PM 40.4833 -74.2500 169° South 264 304 6,000  Level New York TRACON
Mon 07:23:00 PM 40.2505 -74.1665 194° South  Level FlightAware Approximate
Mon 07:23:50 PM 40.4167 -74.2167 159° South 270 311 6,000  Level New York TRACON
Mon 07:24:00 PM 40.1356 -74.2000 180° South  Level FlightAware Approximate
Mon 07:24:50 PM 40.3500 -74.1833 159° South 271 312 7,000  Level New York TRACON
Mon 07:26:01 PM 40.2689 -74.1711 173° South 280 322 10,600 2,791 Climbing New York Center
Mon 07:26:59 PM 40.1847 -74.1997 195° South 285 328 13,000 1,964 Climbing New York Center
Mon 07:27:51 PM 40.1078 -74.2217 192° South 449 517 14,200 1,714 Climbing Washington Center
Mon 07:28:51 PM 40.0081 -74.2533 194° South 416 479 16,200 1,850 Climbing Washington Center
Mon 07:29:51 PM 39.9214 -74.3336 215° Southwest 383 441 17,900 1,950 Climbing Washington Center
Mon 07:30:51 PM 39.8306 -74.4189 216° Southwest 421 484 20,100 1,900 Climbing Washington Center
Mon 07:31:51 PM 39.7400 -74.5311 224° Southwest 427 491 21,700 1,700 Climbing Washington Center
Mon 07:32:51 PM 39.6578 -74.6428 226° Southwest 427 491 23,500 1,750 Climbing Washington Center
Mon 07:33:51 PM 39.5750 -74.7517 225° Southwest 427 491 25,200 1,600 Climbing Washington Center
Mon 07:34:51 PM 39.4925 -74.8628 226° Southwest 427 491 26,700 1,350 Climbing Washington Center
Mon 07:35:51 PM 39.4036 -74.9764 225° Southwest 432 497 27,900 1,200 Climbing Washington Center
Mon 07:36:51 PM 39.2914 -75.0525 208° Southwest 444 511 29,100 1,300 Climbing Washington Center
Mon 07:37:51 PM 39.1769 -75.1283 207° Southwest 457 526 30,500 1,300 Climbing Washington Center
Mon 07:38:51 PM 39.0647 -75.2067 208° Southwest 457 526 31,700 1,500 Climbing Washington Center
Mon 07:39:51 PM 38.9503 -75.2819 207° Southwest 462 532 33,500 1,550 Climbing Washington Center
Mon 07:40:51 PM 38.8422 -75.3572 208° Southwest 457 526 34,800 1,050 Climbing Washington Center
Mon 07:41:51 PM 38.7317 -75.4294 207° Southwest 452 520 35,600 600 Climbing Washington Center
Mon 07:42:51 PM 38.6214 -75.5014 207° Southwest 452 520 36,000 200 Climbing Washington Center
Mon 07:43:51 PM 38.5150 -75.5783 210° Southwest 452 520 36,000  Level Washington Center
Mon 07:44:51 PM 38.4025 -75.6472 206° Southwest 452 520 36,000  Level Washington Center
Mon 07:45:51 PM 38.2897 -75.7161 206° Southwest 452 520 36,000  Level Washington Center
Mon 07:46:51 PM 38.1814 -75.7872 207° Southwest 452 520 36,000  Level Washington Center
Mon 07:47:51 PM 38.0728 -75.8608 208° Southwest 452 520 36,000  Level Washington Center
Mon 07:48:51 PM 37.9642 -75.9317 207° Southwest 452 520 36,000  Level Washington Center
Mon 07:49:51 PM 37.8556 -76.0022 207° Southwest 452 520 36,000 -50 Level Washington Center
Mon 07:50:51 PM 37.7592 -76.0697 209° Southwest 452 520 35,900 -50 Descending Washington Center
Mon 07:51:51 PM 37.6525 -76.1400 208° Southwest 447 514 35,900 50 Level Washington Center
Mon 07:52:51 PM 37.5314 -76.2125 205° Southwest 442 509 36,000 50 Climbing Washington Center
Mon 07:53:51 PM 37.4203 -76.2822 206° Southwest 442 509 36,000  Level Washington Center
Mon 07:54:51 PM 37.3114 -76.3517 207° Southwest 442 509 36,000  Level Washington Center
Mon 07:55:51 PM 37.2025 -76.4211 207° Southwest 442 509 36,000  Level Washington Center
Mon 07:56:51 PM 37.0936 -76.4903 207° Southwest 442 509 36,000  Level Washington Center
Mon 07:57:51 PM 36.9844 -76.5592 207° Southwest 442 509 36,000  Level Washington Center
Mon 07:58:51 PM 36.8756 -76.6278 207° Southwest 442 509 36,000  Level Washington Center
Mon 07:59:51 PM 36.7686 -76.6964 207° Southwest 442 509 36,000 -50 Level Washington Center
Mon 08:00:51 PM 36.6636 -76.7675 209° Southwest 436 502 35,900  Descending Washington Center
Mon 08:01:51 PM 36.5544 -76.8306 205° Southwest 436 502 36,000 50 Climbing Washington Center
Mon 08:02:51 PM 36.4453 -76.8986 207° Southwest 436 502 36,000  Level Washington Center
Mon 08:03:51 PM 36.3381 -76.9664 207° Southwest 430 495 36,000  Level Washington Center
Mon 08:04:51 PM 36.2308 -77.0339 207° Southwest 430 495 36,000 -50 Level Washington Center
Mon 08:05:51 PM 36.1217 -77.0989 206° Southwest 430 495 35,900  Descending Washington Center
Mon 08:06:51 PM 36.0164 -77.1661 207° Southwest 425 489 36,000 50 Climbing Washington Center
Mon 08:07:51 PM 35.9172 -77.2464 213° Southwest 431 496 36,000  Level Washington Center
Mon 08:08:51 PM 35.8219 -77.3392 218° Southwest 436 502 36,000  Level Washington Center
Mon 08:09:51 PM 35.7308 -77.4292 219° Southwest 436 502 36,000  Level Washington Center
Mon 08:10:51 PM 35.6356 -77.5217 218° Southwest 436 502 36,000  Level Washington Center
Mon 08:11:51 PM 35.5403 -77.6111 217° Southwest 436 502 36,000  Level Washington Center
Mon 08:12:51 PM 35.4469 -77.6956 216° Southwest 431 496 36,000  Level Washington Center
Mon 08:13:51 PM 35.3514 -77.7872 218° Southwest 431 496 36,000  Level Washington Center
Mon 08:14:51 PM 35.2578 -77.8786 219° Southwest 431 496 36,000  Level Washington Center
Mon 08:15:51 PM 35.1644 -77.9675 218° Southwest 431 496 36,000  Level Washington Center
Mon 08:16:51 PM 35.0686 -78.0536 216° Southwest 431 496 36,000  Level Washington Center
Mon 08:17:51 PM 34.9750 -78.1419 218° Southwest 431 496 36,000  Level Washington Center
Mon 08:20:20 PM 34.7619 -78.3414 218° Southwest 416 479 36,000  Level Jacksonville Center
Mon 08:21:20 PM 34.6508 -78.4458 218° Southwest 427 491 36,000  Level Jacksonville Center
Mon 08:22:20 PM 34.5581 -78.5311 217° Southwest 432 497 36,000  Level Jacksonville Center
Mon 08:23:20 PM 34.4814 -78.6131 221° Southwest 426 490 36,000  Level Jacksonville Center
Mon 08:24:20 PM 34.3864 -78.6983 217° Southwest 426 490 36,000  Level Jacksonville Center
Mon 08:25:20 PM 34.2778 -78.7614 206° Southwest 432 497 36,000  Level Jacksonville Center
Mon 08:26:20 PM 34.1669 -78.8169 203° Southwest 432 497 36,000  Level Jacksonville Center
Mon 08:27:20 PM 34.0561 -78.8697 202° Southwest 437 503 36,000  Level Jacksonville Center
Mon 08:28:20 PM 33.9411 -78.9275 203° Southwest 437 503 36,000  Level Jacksonville Center
Mon 08:29:20 PM 33.8300 -78.9825 202° Southwest 437 503 36,000  Level Jacksonville Center
Mon 08:30:20 PM 33.7189 -79.0350 201° Southwest 437 503 36,000  Level Jacksonville Center
Mon 08:31:20 PM 33.6058 -79.0897 202° Southwest 437 503 36,000  Level Jacksonville Center
Mon 08:32:20 PM 33.4989 -79.1417 202° Southwest 432 497 36,000  Level Jacksonville Center
Mon 08:33:20 PM 33.3900 -79.1983 203° Southwest 432 497 36,000  Level Jacksonville Center
Mon 08:34:20 PM 33.2769 -79.2528 202° Southwest 432 497 36,000  Level Jacksonville Center
Mon 08:35:20 PM 33.1656 -79.3044 201° Southwest 432 497 36,000  Level Jacksonville Center
Mon 08:36:20 PM 33.0525 -79.3611 203° Southwest 432 497 36,000  Level Jacksonville Center
Mon 08:37:20 PM 32.9411 -79.4150 202° Southwest 437 503 36,000  Level Jacksonville Center
Mon 08:38:20 PM 32.8300 -79.4686 202° Southwest 432 497 36,000  Level Jacksonville Center
Mon 08:39:20 PM 32.7186 -79.5222 202° Southwest 432 497 36,000  Level Jacksonville Center
Mon 08:40:20 PM 32.6094 -79.5756 202° Southwest 432 497 36,000  Level Jacksonville Center
Mon 08:41:20 PM 32.4961 -79.6317 203° Southwest 432 497 36,000 -50 Level Jacksonville Center
Mon 08:42:20 PM 32.3828 -79.6847 202° Southwest 432 497 35,900  Descending Jacksonville Center
Mon 08:43:20 PM 32.2733 -79.7378 202° Southwest 432 497 36,000 50 Climbing Jacksonville Center
Mon 08:44:20 PM 32.1600 -79.7931 202° Southwest 437 503 36,000  Level Jacksonville Center
Mon 08:45:20 PM 32.0444 -79.8461 201° Southwest 437 503 36,000  Level Jacksonville Center
Mon 08:46:20 PM 31.9328 -79.9011 203° Southwest 437 503 36,000  Level Jacksonville Center
Mon 08:47:20 PM 31.8172 -79.9564 202° Southwest 443 510 36,000  Level Jacksonville Center
Mon 08:48:20 PM 31.7036 -80.0086 201° Southwest 443 510 36,000  Level Jacksonville Center
Mon 08:49:20 PM 31.5900 -80.0633 202° Southwest 448 516 36,000  Level Jacksonville Center
Mon 08:50:20 PM 31.4764 -80.1181 202° Southwest 448 516 36,000 -50 Level Jacksonville Center
Mon 08:51:20 PM 31.3650 -80.1725 203° Southwest 448 516 35,900  Descending Jacksonville Center
Mon 08:52:20 PM 31.2344 -80.2272 200° South 442 509 36,000  Climbing Jacksonville Center
Mon 08:53:20 PM 31.1292 -80.2836 205° Southwest 442 509 35,900 -50 Descending Jacksonville Center
Mon 08:54:20 PM 31.0069 -80.3306 198° South 451 519 35,900 -450 Level Jacksonville Center
Mon 08:55:20 PM 30.8994 -80.3867 204° Southwest 451 519 35,000 -1,000 Descending Jacksonville Center
Mon 08:56:20 PM 30.7817 -80.4408 202° Southwest 446 513 33,900 -500 Descending Jacksonville Center
Mon 08:57:20 PM 30.6678 -80.4894 200° South 446 513 34,000 50 Climbing Jacksonville Center
Mon 08:58:20 PM 30.5539 -80.5456 203° Southwest 446 513 34,000  Level Jacksonville Center
Mon 08:59:20 PM 30.4358 -80.5989 201° Southwest 453 521 34,000 -200 Level Jacksonville Center
Mon 09:00:20 PM 30.3219 -80.6522 202° Southwest 453 521 33,600 -650 Descending Jacksonville Center
Mon 09:01:20 PM 30.2058 -80.7031 201° Southwest 447 514 32,700 -1,000 Descending Jacksonville Center
Mon 09:02:20 PM 30.0833 -80.7417 195° South 447 514 31,600 -1,500 Descending Jacksonville Center
Mon 09:03:20 PM 29.9631 -80.7828 196° South 452 520 29,700 -2,100 Descending Jacksonville Center
Mon 09:04:20 PM 29.8383 -80.8239 196° South 457 526 27,400 -2,250 Descending Jacksonville Center
Mon 09:05:20 PM 29.7222 -80.8622 196° South 452 520 25,200 -2,200 Descending Jacksonville Center
Mon 09:06:20 PM 29.6081 -80.9003 196° South 447 514 23,000 -2,150 Descending Jacksonville Center
Mon 09:07:20 PM 29.4917 -80.9386 196° South 435 501 20,900 -2,000 Descending Jacksonville Center
Mon 09:08:20 PM 29.3836 -80.9717 195° South 429 494 19,000 -1,900 Descending Jacksonville Center
Mon 09:09:20 PM 29.2778 -81.0047 195° South 411 473 17,100 -1,950 Descending Jacksonville Center
Mon 09:10:20 PM 29.1778 -81.0350 195° South 395 455 15,100 -1,900 Descending Jacksonville Center
Mon 09:11:20 PM 29.0803 -81.0703 198° South 378 435 13,300 -1,600 Descending Jacksonville Center
Mon 09:12:20 PM 28.9844 -81.0908 191° South 367 422 11,900 -1,400 Descending Jacksonville Center
Mon 09:13:20 PM 28.8908 -81.0997 185° South 354 407 10,500 -1,282 Descending Jacksonville Center
Mon 09:14:17 PM 28.8167 -81.1167 191° South 292 336 9,400 -732 Descending Orlando TRACON
Mon 09:15:23 PM 28.7167 -81.1333 188° South 295 339 9,000 -200 Descending Orlando TRACON
Mon 09:16:17 PM 28.6500 -81.1333 180° South 291 335 9,000  Level Orlando TRACON
Mon 09:17:23 PM 28.5500 -81.1500 188° South 296 341 9,000 -429 Level Orlando TRACON
Mon 09:18:23 PM 28.4833 -81.1667 192° South 293 337 8,100 -1,050 Descending Orlando TRACON
Mon 09:19:23 PM 28.4000 -81.1833 190° South 237 273 6,900 -1,421 Descending Orlando TRACON
Mon 09:20:17 PM 28.3500 -81.1833 180° South 241 277 5,400 -1,684 Descending Orlando TRACON
Mon 09:21:17 PM 28.2833 -81.1833 180° South 233 268 3,700 -1,238 Descending Orlando TRACON
Mon 09:22:23 PM 28.2167 -81.2000 192° South 200 230 2,800 -955 Descending Orlando TRACON
Mon 09:23:29 PM 28.2500 -81.2500 307° West 206 237 1,600 -632 Descending Orlando TRACON
Mon 09:24:17 PM 28.2833 -81.2833 319° Northwest 200 230 1,600 -56 Level Orlando TRACON
Mon 09:25:17 PM 28.3333 -81.3167 330° Northwest 204 235 1,500 -350 Descending Orlando TRACON
Mon 09:26:17 PM 28.3667 -81.3167 360° North 143 165 900 -684 Descending Orlando TRACON
Mon 09:27:11 PM 28.4167 -81.3167 360° North 142 163 200 -778 Descending Orlando TRACON
Mon 09:29:00 PM 28.4167 -81.3000 336° Northwest  Level FlightAware Approximate
Mon 09:36:00 PM 28.4294 -81.3090 336° Northwest  Level Estimated
Mon 09:37:00 PM 28.4294 -81.3090 336° Northwest  Level Estimated
Mon 09:38:00 PM 28.4294 -81.3090 336° Northwest  Level Estimated

Login

Don't have an account? Register now (free) for customized features, flight alerts, and more!